This is the latest recevied weather packets stored in our database for station/object GW1573. If no packets are shown the sender has not sent any weather packets the latest 10 day(s).
| Time | Temp. | Humidity | Pressure | Rain* | Wind** | Luminosity | Snow |
|---|---|---|---|---|---|---|---|
| 1777215257 | 9.44° C | 85% | 1019.6 hPa | 0 mm | - | - | - |
| 1777214931 | 8.89° C | 86% | 1019.3 hPa | 0 mm | - | - | - |
| 1777213826 | 8.89° C | 86% | 1019.3 hPa | 0 mm | - | - | - |
| 1777213102 | 8.89° C | 86% | 1019.3 hPa | 0 mm | - | - | - |
| 1777212051 | 8.89° C | 86% | 1018.9 hPa | 0 mm | - | - | - |
| 1777209158 | 8.89° C | 86% | 1018.9 hPa | 0 mm | - | - | - |
| 1777207359 | 8.89° C | 86% | 1018.9 hPa | 0 mm | - | - | - |
| 1777202317 | 8.89° C | 87% | 1017.9 hPa | 0 mm | - | - | - |
| 1777201941 | 8.89° C | 87% | 1017.9 hPa | 0 mm | - | - | - |
| 1777198332 | 10° C | 87% | 1017.2 hPa | 0 mm | - | - | - |
| 1777197265 | 10° C | 88% | 1016.5 hPa | 0 mm | - | - | - |
| 1777194014 | 10.56° C | 86% | 1016.2 hPa | 0 mm | - | - | - |
| 1777191156 | 11.11° C | 84% | 1015.5 hPa | 0 mm | - | - | - |
| 1777185396 | 11.11° C | 84% | 1015.2 hPa | 0 mm | - | - | - |
| 1777185022 | 11.67° C | 83% | 1014.9 hPa | 0 mm | - | - | - |
| 1777184672 | 11.67° C | 83% | 1014.9 hPa | 0 mm | - | - | - |
| 1777183947 | 11.67° C | 82% | 1014.9 hPa | 0 mm | - | - | - |
| 1777182525 | 12.22° C | 81% | 1015.2 hPa | 0 mm | - | - | - |
| 1777181801 | 12.22° C | 81% | 1015.2 hPa | 0 mm | - | - | - |
| 1777180333 | 12.22° C | 84% | 1015.2 hPa | 0 mm | - | - | - |
| 1777179652 | 11.67° C | 87% | 1014.9 hPa | 0 mm | - | - | - |
| 1777175664 | 12.78° C | 84% | 1014.9 hPa | 1.02 mm | - | - | - |
| 1777174570 | 13.33° C | 83% | 1014.5 hPa | 1.02 mm | - | - | - |
| 1777170649 | 15° C | 82% | 1014.2 hPa | 1.02 mm | - | - | - |
| 1777169539 | 15° C | 81% | 1014.2 hPa | 1.02 mm | - | - | - |
* Rain since midnight (hover to see other rain measurements)
** Current wind speed in m/s (hover to see current wind gust speed)